createdAt,value
2023-02-05T00:06:35.006Z,102490.91
2023-02-05T00:21:25.202Z,102491.72
2023-02-05T00:36:15.504Z,102493.77
2023-02-05T00:51:05.755Z,102487.91
2023-02-05T01:05:55.380Z,102502.03
2023-02-05T01:20:45.313Z,102479.02
2023-02-05T01:35:35.375Z,102451.39
2023-02-05T01:50:25.075Z,102445.25
2023-02-05T02:05:16.556Z,102420.69
2023-02-05T02:20:05.921Z,102409.71
2023-02-05T02:34:56.623Z,102389.00
2023-02-05T02:49:52.037Z,102386.93
2023-02-05T03:04:46.806Z,102388.73
2023-02-05T03:19:37.859Z,102374.78
2023-02-05T03:34:28.519Z,102375.70
2023-02-05T03:49:21.702Z,102342.81
2023-02-05T04:19:05.883Z,102339.27
2023-02-05T04:33:57.285Z,102365.13
2023-02-05T04:48:50.327Z,102364.31
2023-02-05T05:03:40.099Z,102367.00
2023-02-05T05:18:30.238Z,102363.52
2023-02-05T05:33:20.505Z,102343.41
2023-02-05T05:48:11.420Z,102333.38
2023-02-05T06:03:02.311Z,102336.46
2023-02-05T06:17:52.484Z,102353.22
2023-02-05T06:32:42.955Z,102351.85
2023-02-05T06:47:33.320Z,102370.70
2023-02-05T07:02:24.491Z,102369.44
2023-02-05T07:17:14.631Z,102350.57
2023-02-05T07:32:04.506Z,102336.87
2023-02-05T07:46:55.374Z,102333.05
2023-02-05T08:01:46.007Z,102356.64
2023-02-05T08:16:37.244Z,102328.20
2023-02-05T08:31:27.138Z,102306.68
2023-02-05T08:46:18.791Z,102305.13
2023-02-05T09:01:11.974Z,102281.09
2023-02-05T09:16:05.712Z,102260.70
2023-02-05T09:30:56.718Z,102252.16
2023-02-05T10:01:03.294Z,102275.14
2023-02-05T10:16:12.388Z,102276.56
2023-02-05T10:31:25.043Z,102234.09
2023-02-05T10:46:19.268Z,102227.90
2023-02-05T11:01:08.621Z,102207.97
2023-02-05T11:16:34.148Z,102176.55
2023-02-05T11:31:23.877Z,102166.06
2023-02-05T11:46:17.700Z,102159.03
2023-02-05T12:01:22.999Z,102156.28
2023-02-05T12:16:19.556Z,102150.21
2023-02-05T12:31:18.802Z,102140.59
2023-02-05T12:46:37.680Z,102103.75
2023-02-05T13:01:45.660Z,102103.33
2023-02-05T13:16:42.232Z,102094.56
2023-02-05T13:31:39.065Z,102084.56
2023-02-05T13:46:54.713Z,102088.98
2023-02-05T14:01:49.742Z,102074.96
2023-02-05T14:16:43.620Z,102069.73
2023-02-05T14:31:45.694Z,102057.00
2023-02-05T14:46:41.028Z,102067.97
2023-02-05T15:01:37.799Z,102078.48
2023-02-05T15:31:40.834Z,102098.63
2023-02-05T15:46:33.953Z,102095.64
2023-02-05T16:01:45.876Z,102107.05
2023-02-05T16:16:44.522Z,102128.16
2023-02-05T16:31:39.003Z,102145.27
2023-02-05T16:46:30.030Z,102163.30
2023-02-05T17:01:25.978Z,102189.66
2023-02-05T17:16:23.374Z,102215.91
2023-02-05T17:31:17.090Z,102222.91
2023-02-05T17:46:14.139Z,102232.55
2023-02-05T18:01:08.479Z,102243.10
2023-02-05T18:15:58.886Z,102253.16
2023-02-05T18:30:58.634Z,102261.42
2023-02-05T18:45:52.429Z,102294.72
2023-02-05T19:00:47.421Z,102319.20
2023-02-05T19:15:36.362Z,102331.00
2023-02-05T19:30:26.636Z,102339.38
2023-02-05T19:45:30.305Z,102339.73
2023-02-05T20:00:22.898Z,102360.70
2023-02-05T20:15:15.865Z,102369.91
2023-02-05T20:30:26.372Z,102372.44
2023-02-05T20:45:23.259Z,102384.26
2023-02-05T21:00:15.279Z,102401.62
2023-02-05T21:15:10.082Z,102419.97
2023-02-05T21:45:17.590Z,102474.25
2023-02-05T22:00:15.272Z,102488.56
2023-02-05T22:15:04.216Z,102500.22
2023-02-05T22:44:48.038Z,102548.06
2023-02-05T22:59:39.873Z,102556.69
2023-02-05T23:14:31.610Z,102578.13
2023-02-05T23:29:24.381Z,102585.28
2023-02-05T23:44:16.327Z,102591.72
2023-02-05T23:59:07.312Z,102601.77
